sensor_id;sensor_type;location;lat;lon;timestamp;pressure;altitude;pressure_sealevel;temperature;humidity
63096;BME280;49184;55.596;37.770;2022-12-08T00:33:41;100210.75;;;-4.76;54.97
63096;BME280;49184;55.596;37.770;2022-12-08T00:40:03;100104.66;;;-5.24;54.63
63096;BME280;49184;55.596;37.770;2022-12-08T01:10:49;100211.28;;;-4.38;54.40
63096;BME280;49184;55.596;37.770;2022-12-08T01:13:31;100139.81;;;-5.13;54.59
63096;BME280;49184;55.596;37.770;2022-12-08T01:24:56;100218.50;;;-4.32;54.40
63096;BME280;49184;55.596;37.770;2022-12-08T01:48:46;100161.44;;;-4.59;54.62
63096;BME280;49184;55.596;37.770;2022-12-08T02:02:10;100139.94;;;-5.00;55.21
63096;BME280;49184;55.596;37.770;2022-12-08T02:20:51;100196.47;;;-4.40;55.08
63096;BME280;49184;55.596;37.770;2022-12-08T03:02:04;100166.13;;;-4.39;54.83
63096;BME280;49184;55.596;37.770;2022-12-08T03:18:47;100048.34;;;-4.92;54.53
63096;BME280;49184;55.596;37.770;2022-12-08T03:21:28;100117.97;;;-4.81;55.11
63096;BME280;49184;55.596;37.770;2022-12-08T03:23:59;100138.59;;;-4.68;55.41
63096;BME280;49184;55.596;37.770;2022-12-08T03:34:35;100030.69;;;-4.93;54.58
63096;BME280;49184;55.596;37.770;2022-12-08T03:37:04;100122.69;;;-4.55;54.72
63096;BME280;49184;55.596;37.770;2022-12-08T03:40:19;100023.50;;;-5.00;54.47
63096;BME280;49184;55.596;37.770;2022-12-08T04:23:58;99996.47;;;-4.90;55.21
63096;BME280;49184;55.596;37.770;2022-12-08T04:30:44;100113.03;;;-4.21;55.12
63096;BME280;49184;55.596;37.770;2022-12-08T04:41:52;99989.59;;;-5.06;55.40
63096;BME280;49184;55.596;37.770;2022-12-08T04:44:28;100052.03;;;-4.65;55.41
63096;BME280;49184;55.596;37.770;2022-12-08T04:46:54;100058.06;;;-4.50;55.42
63096;BME280;49184;55.596;37.770;2022-12-08T04:49:35;100038.69;;;-4.93;56.42
63096;BME280;49184;55.596;37.770;2022-12-08T04:52:01;100091.19;;;-4.38;55.92
63096;BME280;49184;55.596;37.770;2022-12-08T04:54:27;100066.34;;;-4.38;55.31
63096;BME280;49184;55.596;37.770;2022-12-08T04:57:09;100105.34;;;-4.03;54.91
63096;BME280;49184;55.596;37.770;2022-12-08T05:03:04;100024.06;;;-4.76;55.56
63096;BME280;49184;55.596;37.770;2022-12-08T05:05:50;100025.09;;;-4.70;55.72
63096;BME280;49184;55.596;37.770;2022-12-08T05:08:32;100005.06;;;-4.94;56.02
63096;BME280;49184;55.596;37.770;2022-12-08T05:11:23;100103.81;;;-4.18;55.83
63096;BME280;49184;55.596;37.770;2022-12-08T05:13:54;100046.84;;;-4.39;55.34
63096;BME280;49184;55.596;37.770;2022-12-08T05:19:42;100072.63;;;-4.53;56.16
63096;BME280;49184;55.596;37.770;2022-12-08T05:22:08;100055.38;;;-4.57;55.79
63096;BME280;49184;55.596;37.770;2022-12-08T05:24:38;100057.53;;;-4.67;56.09
63096;BME280;49184;55.596;37.770;2022-12-08T05:27:14;100031.75;;;-4.60;55.73
63096;BME280;49184;55.596;37.770;2022-12-08T05:29:41;100046.25;;;-4.69;56.01
63096;BME280;49184;55.596;37.770;2022-12-08T05:32:44;99983.84;;;-5.09;55.52
63096;BME280;49184;55.596;37.770;2022-12-08T05:35:14;100064.59;;;-4.59;55.57
63096;BME280;49184;55.596;37.770;2022-12-08T05:37:53;100087.63;;;-4.17;55.17
63096;BME280;49184;55.596;37.770;2022-12-08T05:40:47;100091.91;;;-4.16;55.14
63096;BME280;49184;55.596;37.770;2022-12-08T05:43:13;100081.84;;;-4.55;55.54
63096;BME280;49184;55.596;37.770;2022-12-08T05:49:06;100050.72;;;-5.04;56.37
63096;BME280;49184;55.596;37.770;2022-12-08T05:51:42;100099.56;;;-4.76;56.94
63096;BME280;49184;55.596;37.770;2022-12-08T05:54:33;100092.94;;;-4.52;56.09
63096;BME280;49184;55.596;37.770;2022-12-08T05:56:59;100046.81;;;-4.74;55.71
63096;BME280;49184;55.596;37.770;2022-12-08T05:59:25;100055.59;;;-4.52;55.26
63096;BME280;49184;55.596;37.770;2022-12-08T06:01:51;100091.06;;;-4.23;55.27
63096;BME280;49184;55.596;37.770;2022-12-08T06:04:19;100068.22;;;-4.32;56.03
63096;BME280;49184;55.596;37.770;2022-12-08T06:07:10;100066.34;;;-4.38;55.17
63096;BME280;49184;55.596;37.770;2022-12-08T06:09:36;100058.97;;;-4.36;55.24
63096;BME280;49184;55.596;37.770;2022-12-08T06:12:06;100045.97;;;-4.81;55.82
63096;BME280;49184;55.596;37.770;2022-12-08T06:14:34;100064.28;;;-4.71;56.47
63096;BME280;49184;55.596;37.770;2022-12-08T06:17:49;100091.75;;;-4.49;55.96
63096;BME280;49184;55.596;37.770;2022-12-08T06:20:28;100052.91;;;-4.52;55.97
63096;BME280;49184;55.596;37.770;2022-12-08T06:22:54;100025.31;;;-5.00;56.06
63096;BME280;49184;55.596;37.770;2022-12-08T06:25:21;100050.94;;;-5.27;57.59
63096;BME280;49184;55.596;37.770;2022-12-08T06:27:48;100040.28;;;-5.27;58.15
63096;BME280;49184;55.596;37.770;2022-12-08T06:30:23;100092.91;;;-4.58;57.79
63096;BME280;49184;55.596;37.770;2022-12-08T06:36:11;100040.50;;;-4.73;56.48
63096;BME280;49184;55.596;37.770;2022-12-08T06:39:02;100091.66;;;-4.62;56.35
63096;BME280;49184;55.596;37.770;2022-12-08T06:42:11;100086.22;;;-4.76;56.86
63096;BME280;49184;55.596;37.770;2022-12-08T06:44:56;100073.69;;;-4.40;56.36
63096;BME280;49184;55.596;37.770;2022-12-08T06:51:30;99950.56;;;-4.85;55.46
63096;BME280;49184;55.596;37.770;2022-12-08T06:57:29;99997.81;;;-5.01;55.92
63096;BME280;49184;55.596;37.770;2022-12-08T07:00:03;100056.41;;;-4.51;55.94
63096;BME280;49184;55.596;37.770;2022-12-08T07:02:32;100088.69;;;-4.05;55.21
63096;BME280;49184;55.596;37.770;2022-12-08T07:06:40;99972.41;;;-4.62;54.49
63096;BME280;49184;55.596;37.770;2022-12-08T07:09:11;100051.41;;;-4.26;55.08
63096;BME280;49184;55.596;37.770;2022-12-08T07:11:40;99972.09;;;-4.80;54.99
63096;BME280;49184;55.596;37.770;2022-12-08T07:14:06;100062.47;;;-4.36;55.64
63096;BME280;49184;55.596;37.770;2022-12-08T07:16:34;100047.72;;;-4.25;55.21
63096;BME280;49184;55.596;37.770;2022-12-08T07:19:00;100037.22;;;-4.33;54.55
63096;BME280;49184;55.596;37.770;2022-12-08T07:21:36;100071.44;;;-4.02;54.76
63096;BME280;49184;55.596;37.770;2022-12-08T07:28:40;100076.38;;;-3.99;54.17
63096;BME280;49184;55.596;37.770;2022-12-08T07:31:32;100049.69;;;-3.99;54.48
63096;BME280;49184;55.596;37.770;2022-12-08T07:34:14;100019.03;;;-4.10;54.05
63096;BME280;49184;55.596;37.770;2022-12-08T07:36:42;100081.34;;;-3.96;54.18
63096;BME280;49184;55.596;37.770;2022-12-08T07:39:09;100050.19;;;-4.30;54.38
63096;BME280;49184;55.596;37.770;2022-12-08T07:41:37;100038.59;;;-4.44;54.59
63096;BME280;49184;55.596;37.770;2022-12-08T07:44:04;100085.63;;;-4.02;54.82
63096;BME280;49184;55.596;37.770;2022-12-08T07:46:30;100041.22;;;-4.09;54.60
63096;BME280;49184;55.596;37.770;2022-12-08T07:52:16;100069.81;;;-4.03;54.52
63096;BME280;49184;55.596;37.770;2022-12-08T07:54:57;99953.16;;;-4.51;54.48
63096;BME280;49184;55.596;37.770;2022-12-08T07:57:39;99992.47;;;-4.31;53.95
63096;BME280;49184;55.596;37.770;2022-12-08T08:00:40;100028.31;;;-3.99;54.37
63096;BME280;49184;55.596;37.770;2022-12-08T08:03:08;100010.66;;;-4.00;54.31
63096;BME280;49184;55.596;37.770;2022-12-08T08:05:39;99974.06;;;-4.06;54.26
63096;BME280;49184;55.596;37.770;2022-12-08T08:08:05;100020.59;;;-3.67;53.69
63096;BME280;49184;55.596;37.770;2022-12-08T08:10:31;99928.63;;;-4.26;53.89
63096;BME280;49184;55.596;37.770;2022-12-08T08:12:58;100005.13;;;-3.92;53.99
63096;BME280;49184;55.596;37.770;2022-12-08T08:15:40;99983.97;;;-3.93;53.87
63096;BME280;49184;55.596;37.770;2022-12-08T08:18:38;100038.06;;;-3.58;53.99
63096;BME280;49184;55.596;37.770;2022-12-08T08:21:14;99937.72;;;-4.14;53.62
63096;BME280;49184;55.596;37.770;2022-12-08T08:23:44;100025.56;;;-3.44;53.39
63096;BME280;49184;55.596;37.770;2022-12-08T08:26:16;100009.47;;;-3.71;53.67
63096;BME280;49184;55.596;37.770;2022-12-08T08:29:11;100039.09;;;-3.59;53.97
63096;BME280;49184;55.596;37.770;2022-12-08T08:31:37;99983.19;;;-3.74;53.84
63096;BME280;49184;55.596;37.770;2022-12-08T08:34:03;100036.06;;;-3.29;53.00
63096;BME280;49184;55.596;37.770;2022-12-08T08:36:32;99998.81;;;-3.58;52.94
63096;BME280;49184;55.596;37.770;2022-12-08T08:39:00;100007.06;;;-3.46;53.17
63096;BME280;49184;55.596;37.770;2022-12-08T08:41:35;99951.53;;;-3.70;53.22
63096;BME280;49184;55.596;37.770;2022-12-08T08:47:17;99998.81;;;-3.58;53.23
63096;BME280;49184;55.596;37.770;2022-12-08T08:49:45;99945.56;;;-3.79;53.23
63096;BME280;49184;55.596;37.770;2022-12-08T08:52:11;100029.66;;;-3.55;53.47
63096;BME280;49184;55.596;37.770;2022-12-08T08:54:43;100032.94;;;-3.60;54.57
63096;BME280;49184;55.596;37.770;2022-12-08T09:00:44;100007.06;;;-3.26;53.37
63096;BME280;49184;55.596;37.770;2022-12-08T09:06:55;99939.19;;;-3.38;52.81
63096;BME280;49184;55.596;37.770;2022-12-08T09:09:49;100031.13;;;-2.86;52.64
63096;BME280;49184;55.596;37.770;2022-12-08T09:12:24;99976.41;;;-2.97;52.50
63096;BME280;49184;55.596;37.770;2022-12-08T09:15:16;100025.97;;;-2.81;52.61
63096;BME280;49184;55.596;37.770;2022-12-08T09:18:12;99984.03;;;-3.14;52.55
63096;BME280;49184;55.596;37.770;2022-12-08T09:21:06;100029.25;;;-2.79;52.44
63096;BME280;49184;55.596;37.770;2022-12-08T09:23:34;99973.75;;;-3.30;52.93
63096;BME280;49184;55.596;37.770;2022-12-08T09:26:10;99966.16;;;-3.40;53.19
63096;BME280;49184;55.596;37.770;2022-12-08T09:28:37;99989.16;;;-3.12;52.79
63096;BME280;49184;55.596;37.770;2022-12-08T09:31:03;99935.91;;;-3.14;52.01
63096;BME280;49184;55.596;37.770;2022-12-08T09:33:29;99953.38;;;-3.04;52.15
63096;BME280;49184;55.596;37.770;2022-12-08T09:39:06;99960.97;;;-3.08;53.43
63096;BME280;49184;55.596;37.770;2022-12-08T09:42:05;99964.66;;;-2.96;53.29
63096;BME280;49184;55.596;37.770;2022-12-08T09:45:02;100014.41;;;-2.68;53.11
63096;BME280;49184;55.596;37.770;2022-12-08T09:50:52;100003.69;;;-2.68;53.51
63096;BME280;49184;55.596;37.770;2022-12-08T10:03:25;99939.50;;;-2.81;52.25
63096;BME280;49184;55.596;37.770;2022-12-08T10:06:18;99994.19;;;-2.44;52.13
63096;BME280;49184;55.596;37.770;2022-12-08T10:15:34;99989.47;;;-2.62;52.28
63096;BME280;49184;55.596;37.770;2022-12-08T10:18:30;99953.75;;;-2.94;52.91
63096;BME280;49184;55.596;37.770;2022-12-08T10:21:08;99943.09;;;-3.01;53.03
63096;BME280;49184;55.596;37.770;2022-12-08T10:24:04;99923.56;;;-3.35;53.34
63096;BME280;49184;55.596;37.770;2022-12-08T10:26:34;99877.97;;;-3.73;53.51
63096;BME280;49184;55.596;37.770;2022-12-08T10:29:11;99934.22;;;-3.08;53.63
63096;BME280;49184;55.596;37.770;2022-12-08T10:31:38;99975.13;;;-2.74;52.94
63096;BME280;49184;55.596;37.770;2022-12-08T10:34:17;99997.06;;;-2.52;53.03
63096;BME280;49184;55.596;37.770;2022-12-08T10:37:33;99998.75;;;-2.51;52.75
63096;BME280;49184;55.596;37.770;2022-12-08T10:39:46;99929.28;;;-2.98;52.97
63096;BME280;49184;55.596;37.770;2022-12-08T10:54:45;100009.63;;;-2.46;53.48
63096;BME280;49184;55.596;37.770;2022-12-08T11:03:50;99982.31;;;-2.75;53.84
63096;BME280;49184;55.596;37.770;2022-12-08T11:09:54;99988.88;;;-2.64;54.71
63096;BME280;49184;55.596;37.770;2022-12-08T11:13:27;99961.09;;;-2.70;54.48
63096;BME280;49184;55.596;37.770;2022-12-08T11:15:55;99907.03;;;-2.98;54.71
63096;BME280;49184;55.596;37.770;2022-12-08T11:18:38;99953.88;;;-2.63;54.51
63096;BME280;49184;55.596;37.770;2022-12-08T11:21:09;99933.16;;;-2.80;54.99
63096;BME280;49184;55.596;37.770;2022-12-08T11:23:46;99992.91;;;-2.35;55.27
63096;BME280;49184;55.596;37.770;2022-12-08T11:29:49;99942.63;;;-2.85;55.86
63096;BME280;49184;55.596;37.770;2022-12-08T11:32:15;99928.00;;;-2.89;56.17
63096;BME280;49184;55.596;37.770;2022-12-08T11:34:45;99957.25;;;-2.36;55.44
63096;BME280;49184;55.596;37.770;2022-12-08T11:37:21;99960.38;;;-2.39;55.10
63096;BME280;49184;55.596;37.770;2022-12-08T11:39:56;99982.22;;;-2.35;55.50
63096;BME280;49184;55.596;37.770;2022-12-08T11:42:50;99928.38;;;-2.72;55.30
63096;BME280;49184;55.596;37.770;2022-12-08T11:45:35;99960.84;;;-2.48;55.35
63096;BME280;49184;55.596;37.770;2022-12-08T12:19:13;99994.69;;;-2.87;57.05
63096;BME280;49184;55.596;37.770;2022-12-08T12:37:50;100009.25;;;-2.56;56.90
63096;BME280;49184;55.596;37.770;2022-12-08T12:41:45;99938.53;;;-2.94;56.17
63096;BME280;49184;55.596;37.770;2022-12-08T13:08:54;99919.47;;;-3.31;57.22
63096;BME280;49184;55.596;37.770;2022-12-08T13:12:26;99975.31;;;-2.76;56.95
63096;BME280;49184;55.596;37.770;2022-12-08T13:14:59;99986.44;;;-2.79;57.31
63096;BME280;49184;55.596;37.770;2022-12-08T13:18:36;100024.22;;;-2.42;56.89
63096;BME280;49184;55.596;37.770;2022-12-08T13:24:35;99932.41;;;-3.21;57.06
63096;BME280;49184;55.596;37.770;2022-12-08T13:27:32;100037.84;;;-2.50;57.06
63096;BME280;49184;55.596;37.770;2022-12-08T13:34:05;100021.75;;;-2.37;57.19
63096;BME280;49184;55.596;37.770;2022-12-08T13:36:52;100026.66;;;-2.27;56.39
63096;BME280;49184;55.596;37.770;2022-12-08T13:40:21;99960.22;;;-2.50;56.23
63096;BME280;49184;55.596;37.770;2022-12-08T13:47:18;99992.03;;;-2.22;55.79
63096;BME280;49184;55.596;37.770;2022-12-08T13:50:39;99921.44;;;-2.86;56.00
63096;BME280;49184;55.596;37.770;2022-12-08T13:58:24;99922.66;;;-2.89;56.17
63096;BME280;49184;55.596;37.770;2022-12-08T14:01:28;99991.31;;;-2.49;56.45
63096;BME280;49184;55.596;37.770;2022-12-08T14:04:33;99959.63;;;-2.59;56.02
63096;BME280;49184;55.596;37.770;2022-12-08T14:07:13;100000.75;;;-2.40;56.03
63096;BME280;49184;55.596;37.770;2022-12-08T14:09:44;100014.03;;;-2.14;55.93
63096;BME280;49184;55.596;37.770;2022-12-08T14:13:10;99971.75;;;-2.56;56.09
63096;BME280;49184;55.596;37.770;2022-12-08T14:22:31;99994.16;;;-2.38;56.57
63096;BME280;49184;55.596;37.770;2022-12-08T14:25:16;99960.47;;;-2.65;56.33
63096;BME280;49184;55.596;37.770;2022-12-08T14:34:21;100019.66;;;-2.22;56.25
63096;BME280;49184;55.596;37.770;2022-12-08T14:37:11;99966.22;;;-2.68;56.93
63096;BME280;49184;55.596;37.770;2022-12-08T14:40:34;100038.19;;;-2.27;56.88
63096;BME280;49184;55.596;37.770;2022-12-08T14:43:25;100046.06;;;-2.45;56.93
63096;BME280;49184;55.596;37.770;2022-12-08T14:46:01;100020.38;;;-2.66;57.53
63096;BME280;49184;55.596;37.770;2022-12-08T14:59:01;100016.75;;;-2.20;56.29
63096;BME280;49184;55.596;37.770;2022-12-08T15:01:21;100055.84;;;-2.13;56.75
63096;BME280;49184;55.596;37.770;2022-12-08T15:03:48;100016.41;;;-2.37;56.88
63096;BME280;49184;55.596;37.770;2022-12-08T15:12:26;100003.38;;;-2.27;56.41
63096;BME280;49184;55.596;37.770;2022-12-08T15:14:58;100058.78;;;-1.76;56.14
63096;BME280;49184;55.596;37.770;2022-12-08T15:17:31;100066.47;;;-1.86;56.11
63096;BME280;49184;55.596;37.770;2022-12-08T15:39:47;100107.66;;;-1.80;56.48
63096;BME280;49184;55.596;37.770;2022-12-08T15:42:35;100031.41;;;-2.29;57.10
63096;BME280;49184;55.596;37.770;2022-12-08T15:49:45;100059.00;;;-2.29;57.75
63096;BME280;49184;55.596;37.770;2022-12-08T16:14:47;100008.22;;;-2.62;58.05
63096;BME280;49184;55.596;37.770;2022-12-08T16:17:20;100013.13;;;-2.46;58.17
63096;BME280;49184;55.596;37.770;2022-12-08T16:33:22;100097.34;;;-2.28;59.48
63096;BME280;49184;55.596;37.770;2022-12-08T16:39:56;100048.38;;;-2.75;60.45
63096;BME280;49184;55.596;37.770;2022-12-08T16:54:56;99997.34;;;-2.74;59.45
63096;BME280;49184;55.596;37.770;2022-12-08T16:58:07;100063.28;;;-2.15;59.47
63096;BME280;49184;55.596;37.770;2022-12-08T17:04:44;100102.72;;;-1.83;59.37
63096;BME280;49184;55.596;37.770;2022-12-08T17:50:23;100010.25;;;-2.44;61.31
63096;BME280;49184;55.596;37.770;2022-12-08T17:53:21;100118.47;;;-2.00;61.29
63096;BME280;49184;55.596;37.770;2022-12-08T17:56:26;100035.38;;;-2.52;61.85
63096;BME280;49184;55.596;37.770;2022-12-08T18:20:29;100035.00;;;-2.69;62.60
63096;BME280;49184;55.596;37.770;2022-12-08T18:26:45;100066.44;;;-2.31;62.25
63096;BME280;49184;55.596;37.770;2022-12-08T18:37:25;100135.88;;;-1.71;63.21
63096;BME280;49184;55.596;37.770;2022-12-08T18:50:40;100076.25;;;-2.05;62.88
63096;BME280;49184;55.596;37.770;2022-12-08T18:54:36;100142.44;;;-1.60;63.08
63096;BME280;49184;55.596;37.770;2022-12-08T19:47:40;100110.59;;;-1.44;62.39
63096;BME280;49184;55.596;37.770;2022-12-08T19:50:33;100149.47;;;-1.21;62.89
63096;BME280;49184;55.596;37.770;2022-12-08T19:53:11;100069.69;;;-1.71;62.35
63096;BME280;49184;55.596;37.770;2022-12-08T19:55:41;100092.78;;;-1.70;62.73
63096;BME280;49184;55.596;37.770;2022-12-08T19:58:23;100068.53;;;-1.88;62.78
63096;BME280;49184;55.596;37.770;2022-12-08T20:00:49;100119.09;;;-1.53;63.14
63096;BME280;49184;55.596;37.770;2022-12-08T20:03:20;100070.13;;;-1.74;62.96
63096;BME280;49184;55.596;37.770;2022-12-08T20:10:19;100079.81;;;-1.34;61.90
63096;BME280;49184;55.596;37.770;2022-12-08T20:19:47;100070.50;;;-1.32;62.28
63096;BME280;49184;55.596;37.770;2022-12-08T20:22:28;100077.19;;;-1.16;61.67
63096;BME280;49184;55.596;37.770;2022-12-08T20:24:58;100127.06;;;-1.02;61.66
63096;BME280;49184;55.596;37.770;2022-12-08T20:34:02;100112.91;;;-1.15;61.75
63096;BME280;49184;55.596;37.770;2022-12-08T20:36:41;100161.09;;;-0.71;61.48
63096;BME280;49184;55.596;37.770;2022-12-08T21:10:01;100103.06;;;-0.97;61.09
63096;BME280;49184;55.596;37.770;2022-12-08T21:12:29;100109.59;;;-0.86;61.05
63096;BME280;49184;55.596;37.770;2022-12-08T21:14:55;100123.34;;;-0.76;60.86
63096;BME280;49184;55.596;37.770;2022-12-08T21:17:21;100077.75;;;-1.07;60.64
63096;BME280;49184;55.596;37.770;2022-12-08T21:19:49;100115.31;;;-0.76;61.19
63096;BME280;49184;55.596;37.770;2022-12-08T21:22:15;100045.84;;;-1.15;60.29
63096;BME280;49184;55.596;37.770;2022-12-08T21:24:41;100082.72;;;-1.11;61.29
63096;BME280;49184;55.596;37.770;2022-12-08T21:40:23;100033.97;;;-1.33;61.25
63096;BME280;49184;55.596;37.770;2022-12-08T21:42:51;100096.19;;;-0.86;60.88
63096;BME280;49184;55.596;37.770;2022-12-08T21:45:19;100111.09;;;-0.97;61.33
63096;BME280;49184;55.596;37.770;2022-12-08T21:47:47;100104.91;;;-1.22;62.02
63096;BME280;49184;55.596;37.770;2022-12-08T21:50:15;100077.91;;;-1.59;62.62
63096;BME280;49184;55.596;37.770;2022-12-08T21:52:44;100125.00;;;-1.38;63.14
63096;BME280;49184;55.596;37.770;2022-12-08T21:55:11;100064.72;;;-1.67;63.42
63096;BME280;49184;55.596;37.770;2022-12-08T21:57:40;100097.22;;;-1.50;63.13
63096;BME280;49184;55.596;37.770;2022-12-08T22:00:10;100154.38;;;-1.11;63.02
63096;BME280;49184;55.596;37.770;2022-12-08T22:02:38;100059.25;;;-1.47;62.69
63096;BME280;49184;55.596;37.770;2022-12-08T22:05:07;100123.16;;;-1.06;62.56
63096;BME280;49184;55.596;37.770;2022-12-08T22:07:36;100084.06;;;-1.27;62.39
63096;BME280;49184;55.596;37.770;2022-12-08T22:10:03;100071.03;;;-1.48;62.86
63096;BME280;49184;55.596;37.770;2022-12-08T22:12:31;100104.47;;;-1.19;62.69
63096;BME280;49184;55.596;37.770;2022-12-08T22:14:58;100023.09;;;-1.70;62.75
63096;BME280;49184;55.596;37.770;2022-12-08T22:17:25;100047.94;;;-1.56;62.50
63096;BME280;49184;55.596;37.770;2022-12-08T22:19:51;100095.00;;;-1.22;62.56
63096;BME280;49184;55.596;37.770;2022-12-08T22:22:17;100115.31;;;-1.07;62.65
63096;BME280;49184;55.596;37.770;2022-12-08T22:24:44;100165.16;;;-0.93;62.79
63096;BME280;49184;55.596;37.770;2022-12-08T22:27:11;100128.56;;;-1.51;64.00
63096;BME280;49184;55.596;37.770;2022-12-08T22:29:37;100127.44;;;-1.75;64.99
63096;BME280;49184;55.596;37.770;2022-12-08T22:32:04;100051.13;;;-2.17;65.19
63096;BME280;49184;55.596;37.770;2022-12-08T22:34:30;100154.59;;;-1.58;65.05
63096;BME280;49184;55.596;37.770;2022-12-08T22:36:56;100140.53;;;-1.53;65.43
63096;BME280;49184;55.596;37.770;2022-12-08T22:39:22;100137.13;;;-1.74;65.69
63096;BME280;49184;55.596;37.770;2022-12-08T22:41:48;100104.25;;;-2.01;66.11
63096;BME280;49184;55.596;37.770;2022-12-08T22:44:14;100090.09;;;-2.15;66.09
63096;BME280;49184;55.596;37.770;2022-12-08T22:46:41;100172.75;;;-1.60;66.30
63096;BME280;49184;55.596;37.770;2022-12-08T22:49:07;100075.91;;;-2.28;66.46
63096;BME280;49184;55.596;37.770;2022-12-08T22:51:36;100076.34;;;-2.38;66.73
63096;BME280;49184;55.596;37.770;2022-12-08T22:54:03;100130.66;;;-2.11;66.99
63096;BME280;49184;55.596;37.770;2022-12-08T22:56:30;100143.41;;;-2.06;67.50
63096;BME280;49184;55.596;37.770;2022-12-08T22:58:56;100149.34;;;-1.91;67.09
63096;BME280;49184;55.596;37.770;2022-12-08T23:01:28;100099.59;;;-2.45;67.56
63096;BME280;49184;55.596;37.770;2022-12-08T23:03:57;100061.16;;;-2.71;67.85
63096;BME280;49184;55.596;37.770;2022-12-08T23:06:24;100111.34;;;-2.40;67.51
63096;BME280;49184;55.596;37.770;2022-12-08T23:08:51;100188.31;;;-1.88;67.71
63096;BME280;49184;55.596;37.770;2022-12-08T23:11:18;100125.31;;;-2.18;67.78
63096;BME280;49184;55.596;37.770;2022-12-08T23:13:45;100168.91;;;-1.84;67.13
63096;BME280;49184;55.596;37.770;2022-12-08T23:16:13;100139.06;;;-2.01;67.45
63096;BME280;49184;55.596;37.770;2022-12-08T23:18:40;100079.44;;;-2.41;67.08
63096;BME280;49184;55.596;37.770;2022-12-08T23:21:10;100065.03;;;-2.53;67.63
63096;BME280;49184;55.596;37.770;2022-12-08T23:23:37;100106.78;;;-2.26;67.53
63096;BME280;49184;55.596;37.770;2022-12-08T23:26:10;100134.13;;;-2.04;67.38
63096;BME280;49184;55.596;37.770;2022-12-08T23:28:40;100094.22;;;-2.32;67.27
63096;BME280;49184;55.596;37.770;2022-12-08T23:31:08;100142.75;;;-1.82;67.30
63096;BME280;49184;55.596;37.770;2022-12-08T23:33:34;100177.84;;;-1.45;66.71
63096;BME280;49184;55.596;37.770;2022-12-08T23:36:01;100113.28;;;-1.88;66.69
63096;BME280;49184;55.596;37.770;2022-12-08T23:38:28;100155.88;;;-1.74;66.21
63096;BME280;49184;55.596;37.770;2022-12-08T23:40:54;100144.19;;;-1.93;66.52
63096;BME280;49184;55.596;37.770;2022-12-08T23:43:24;100109.69;;;-2.27;67.03
63096;BME280;49184;55.596;37.770;2022-12-08T23:45:50;100097.13;;;-2.33;67.23
63096;BME280;49184;55.596;37.770;2022-12-08T23:48:16;100148.56;;;-1.98;67.23
63096;BME280;49184;55.596;37.770;2022-12-08T23:50:42;100138.19;;;-1.81;66.92
63096;BME280;49184;55.596;37.770;2022-12-08T23:53:09;100156.25;;;-1.63;65.98
63096;BME280;49184;55.596;37.770;2022-12-08T23:55:35;100195.53;;;-1.31;66.03
63096;BME280;49184;55.596;37.770;2022-12-08T23:58:02;100172.03;;;-1.35;65.43
